Terminal Aerodrome Forecast
Issued by NWS Twin Cities, MN

Home | Current Version | Previous Version | Graphics & Text | Print | Product List | Glossary Off
Versions: 1 2 3 4 5 6 7 8 9 10 11 12 13 14 15 16 17 18 19 20 21 22 23 24

000
FTUS43 KMPX 021700
TAFSTC
TAF
KSTC 021724Z 0218/0318 30008KT 6SM -RA BR SCT012 OVC040
      TEMPO 0218/0222 3SM RA BR OVC012
     FM030000 28005KT P6SM SCT020 BKN060
     FM030900 29010G18KT P6SM BKN020
     FM031200 29020G32KT 6SM -RA BR BKN025=

USA.gov is the U.S. government's official web portal to all federal, state and local government web resources and services.